Time;durP1;ratioP1;P1;durP2;ratioP2;P2;SDS_P1;SDS_P2;PMS_P1;PMS_P2;Temp;Humidity;BMP_temperature;BMP_pressure;BME280_temperature;BME280_humidity;BME280_pressure;Samples;Min_cycle;Max_cycle;Signal;HPM_P1;HPM_P2
2023/08/14 00:00:51;;;;;;;7.63;2.78;;;;;;;;;;5881442;28;20049;-73
2023/08/14 00:03:56;;;;;;;3.78;2.10;;;;;;;;;;5870458;28;20666;-73
2023/08/14 00:06:47;;;;;;;2.38;2.17;;;;;;;;;;5881820;28;20041;-72
2023/08/14 00:09:44;;;;;;;3.83;1.70;;;;;;;;;;5881538;28;20098;-72
2023/08/14 00:12:41;;;;;;;2.28;1.90;;;;;;;;;;5881150;28;20045;-73
2023/08/14 00:15:32;;;;;;;4.43;2.08;;;;;;;;;;5881358;28;20049;-72
2023/08/14 00:18:29;;;;;;;1.77;1.30;;;;;;;;;;5864907;28;20052;-73
2023/08/14 00:21:21;;;;;;;4.05;1.95;;;;;;;;;;5863791;28;20107;-72
2023/08/14 00:24:18;;;;;;;1.88;1.75;;;;;;;;;;5881341;28;20098;-72
2023/08/14 00:27:09;;;;;;;1.90;1.70;;;;;;;;;;5881292;28;20483;-72
2023/08/14 00:30:06;;;;;;;3.25;2.35;;;;;;;;;;5864653;28;20148;-72
2023/08/14 00:32:57;;;;;;;1.55;1.45;;;;;;;;;;5863429;28;20044;-73
2023/08/14 00:35:54;;;;;;;9.45;1.98;;;;;;;;;;5881647;28;20052;-72
2023/08/14 00:38:45;;;;;;;4.53;2.17;;;;;;;;;;5880601;28;20133;-72
2023/08/14 00:41:42;;;;;;;1.73;1.42;;;;;;;;;;5880570;28;20049;-72
2023/08/14 00:44:33;;;;;;;3.25;2.15;;;;;;;;;;5880598;28;20049;-72
2023/08/14 00:47:31;;;;;;;1.83;1.17;;;;;;;;;;5880914;28;20049;-72
2023/08/14 00:50:22;;;;;;;1.65;1.42;;;;;;;;;;5881208;28;20427;-72
2023/08/14 00:53:20;;;;;;;1.67;1.20;;;;;;;;;;5880949;28;20507;-72
2023/08/14 00:56:11;;;;;;;2.42;1.80;;;;;;;;;;5880543;28;20063;-72
2023/08/14 00:59:11;;;;;;;5.88;2.25;;;;;;;;;;5864147;28;20551;-72
2023/08/14 01:02:02;;;;;;;4.15;2.63;;;;;;;;;;5880858;28;20048;-72
2023/08/14 01:05:00;;;;;;;3.70;1.92;;;;;;;;;;5864173;28;20490;-72
2023/08/14 01:07:51;;;;;;;4.18;1.35;;;;;;;;;;5863023;28;20048;-72
2023/08/14 01:11:12;;;;;;;3.10;1.83;;;;;;;;;;5863515;28;20045;-72
2023/08/14 01:14:26;;;;;;;8.38;1.95;;;;;;;;;;5880796;28;20384;-72
2023/08/14 01:17:26;;;;;;;2.05;1.85;;;;;;;;;;5863484;28;20132;-73
2023/08/14 01:20:30;;;;;;;3.28;1.90;;;;;;;;;;5863976;28;20584;-72
2023/08/14 01:23:55;;;;;;;5.45;1.63;;;;;;;;;;5863871;28;20132;-73
2023/08/14 01:26:46;;;;;;;4.85;3.25;;;;;;;;;;5868019;28;20052;-73
2023/08/14 01:29:50;;;;;;;5.45;2.05;;;;;;;;;;5885333;28;20598;-72
2023/08/14 01:32:40;;;;;;;2.70;2.05;;;;;;;;;;5868404;28;20682;-73
2023/08/14 01:35:54;;;;;;;2.78;1.88;;;;;;;;;;5884813;28;20037;-73
2023/08/14 01:38:59;;;;;;;2.17;1.50;;;;;;;;;;5884658;28;20118;-72
2023/08/14 01:42:18;;;;;;;1.50;1.33;;;;;;;;;;5869080;28;20049;-72
2023/08/14 01:45:16;;;;;;;5.50;1.85;;;;;;;;;;5867910;28;20049;-72
2023/08/14 01:48:14;;;;;;;3.63;1.85;;;;;;;;;;5867980;28;20045;-73
2023/08/14 01:51:14;;;;;;;4.10;1.80;;;;;;;;;;5867758;28;20055;-72
2023/08/14 01:54:05;;;;;;;4.10;2.00;;;;;;;;;;5883649;28;20187;-72
2023/08/14 01:57:02;;;;;;;1.85;1.40;;;;;;;;;;5867037;28;20052;-72
2023/08/14 01:59:53;;;;;;;3.40;1.80;;;;;;;;;;5884037;28;20518;-72
2023/08/14 02:02:50;;;;;;;2.40;1.58;;;;;;;;;;5884038;28;20139;-72
2023/08/14 02:05:41;;;;;;;4.55;1.83;;;;;;;;;;5883362;28;20049;-71
2023/08/14 02:08:38;;;;;;;3.50;2.17;;;;;;;;;;5883490;28;20059;-72
2023/08/14 02:11:29;;;;;;;9.43;2.38;;;;;;;;;;5865739;28;20048;-72
2023/08/14 02:14:26;;;;;;;2.97;1.80;;;;;;;;;;5884011;28;20049;-73
2023/08/14 02:17:17;;;;;;;2.22;1.40;;;;;;;;;;5884118;28;20055;-73
2023/08/14 02:20:14;;;;;;;5.43;1.80;;;;;;;;;;5883444;28;20051;-72
2023/08/14 02:23:05;;;;;;;2.40;2.05;;;;;;;;;;5883701;28;20070;-72
2023/08/14 02:26:02;;;;;;;2.60;1.60;;;;;;;;;;5883653;28;20063;-72
2023/08/14 02:28:53;;;;;;;2.13;1.48;;;;;;;;;;5884041;28;20048;-72
2023/08/14 02:31:51;;;;;;;4.03;2.25;;;;;;;;;;5866701;28;20044;-72
2023/08/14 02:34:48;;;;;;;1.83;1.65;;;;;;;;;;5883607;28;20080;-73
2023/08/14 02:37:45;;;;;;;1.80;1.20;;;;;;;;;;5881928;28;20051;-72
2023/08/14 02:40:37;;;;;;;2.83;1.67;;;;;;;;;;5865076;28;20057;-73
2023/08/14 02:43:34;;;;;;;2.53;1.70;;;;;;;;;;5866839;28;20577;-72
2023/08/14 02:46:25;;;;;;;5.25;2.15;;;;;;;;;;5882727;28;20090;-72
2023/08/14 02:49:22;;;;;;;7.07;2.33;;;;;;;;;;5883399;28;20576;-73
2023/08/14 02:52:13;;;;;;;1.95;1.73;;;;;;;;;;5883048;28;20052;-73
2023/08/14 02:55:10;;;;;;;1.75;1.63;;;;;;;;;;5882481;28;20049;-72
2023/08/14 02:58:01;;;;;;;1.45;1.35;;;;;;;;;;5882703;28;20055;-72
2023/08/14 03:00:58;;;;;;;2.03;1.60;;;;;;;;;;5883070;28;20498;-73
2023/08/14 03:03:49;;;;;;;2.08;1.73;;;;;;;;;;5882924;28;20048;-72
2023/08/14 03:06:46;;;;;;;4.18;1.60;;;;;;;;;;5882242;28;20049;-72
2023/08/14 03:09:37;;;;;;;2.25;1.77;;;;;;;;;;5881288;28;20048;-72
2023/08/14 03:12:34;;;;;;;2.67;1.73;;;;;;;;;;5880674;28;20049;-72
2023/08/14 03:15:25;;;;;;;2.47;1.67;;;;;;;;;;5880213;28;20045;-72
2023/08/14 03:18:22;;;;;;;2.50;1.80;;;;;;;;;;5881422;28;20037;-73
2023/08/14 03:21:13;;;;;;;1.70;1.52;;;;;;;;;;5880563;28;20500;-73
2023/08/14 03:24:10;;;;;;;2.30;1.77;;;;;;;;;;5864437;28;20120;-72
2023/08/14 03:27:01;;;;;;;2.00;1.80;;;;;;;;;;5880646;28;20048;-73
2023/08/14 03:29:58;;;;;;;4.30;2.38;;;;;;;;;;5880608;28;20049;-72
2023/08/14 03:32:50;;;;;;;2.70;1.92;;;;;;;;;;5863315;28;20095;-72
2023/08/14 03:35:47;;;;;;;3.03;1.35;;;;;;;;;;5880080;28;20049;-73
2023/08/14 03:38:38;;;;;;;4.43;2.30;;;;;;;;;;5880146;28;20055;-72
2023/08/14 03:41:35;;;;;;;2.50;1.67;;;;;;;;;;5879811;28;20060;-72
2023/08/14 03:44:26;;;;;;;2.33;1.60;;;;;;;;;;5880062;28;20132;-73
2023/08/14 03:47:23;;;;;;;2.72;1.58;;;;;;;;;;5879649;28;20056;-73
2023/08/14 03:50:14;;;;;;;1.95;1.67;;;;;;;;;;5880451;28;20126;-72
2023/08/14 03:53:11;;;;;;;3.25;2.83;;;;;;;;;;5863563;28;20097;-72
2023/08/14 03:56:02;;;;;;;4.22;2.83;;;;;;;;;;5879696;28;20059;-72
2023/08/14 03:58:59;;;;;;;1.48;1.33;;;;;;;;;;5879889;28;20494;-72
2023/08/14 04:01:50;;;;;;;2.08;1.73;;;;;;;;;;5879547;28;20049;-72
2023/08/14 04:04:48;;;;;;;2.58;2.35;;;;;;;;;;5880256;28;20049;-72
2023/08/14 04:07:45;;;;;;;1.80;1.60;;;;;;;;;;5879656;28;20091;-73
2023/08/14 04:10:37;;;;;;;7.75;2.15;;;;;;;;;;5878929;28;20669;-72
2023/08/14 04:13:34;;;;;;;2.25;1.73;;;;;;;;;;5879051;28;20056;-72
2023/08/14 04:16:41;;;;;;;1.85;1.75;;;;;;;;;;5878658;28;20052;-72
2023/08/14 04:19:38;;;;;;;2.28;1.85;;;;;;;;;;5879026;28;20136;-72
2023/08/14 04:22:29;;;;;;;2.45;1.63;;;;;;;;;;5860875;28;20041;-72
2023/08/14 04:25:28;;;;;;;2.55;1.85;;;;;;;;;;5879163;28;20041;-72
2023/08/14 04:28:28;;;;;;;3.38;1.67;;;;;;;;;;5879145;28;20600;-72
2023/08/14 04:31:18;;;;;;;2.65;2.13;;;;;;;;;;5879375;28;20486;-72
2023/08/14 04:34:16;;;;;;;1.77;1.43;;;;;;;;;;5878659;28;20037;-73
2023/08/14 04:37:07;;;;;;;3.15;1.85;;;;;;;;;;5879177;28;20084;-72
2023/08/14 04:40:05;;;;;;;3.17;2.17;;;;;;;;;;5878763;28;20107;-72
2023/08/14 04:42:56;;;;;;;3.38;1.60;;;;;;;;;;5878593;28;20124;-72
2023/08/14 04:45:53;;;;;;;3.10;1.38;;;;;;;;;;5878371;28;20049;-72
2023/08/14 04:48:50;;;;;;;2.35;1.88;;;;;;;;;;5878385;28;20661;-72
2023/08/14 04:51:41;;;;;;;4.88;2.30;;;;;;;;;;5878919;28;20120;-71
2023/08/14 04:54:38;;;;;;;3.13;2.38;;;;;;;;;;5878543;28;20423;-72
2023/08/14 04:57:29;;;;;;;3.65;2.05;;;;;;;;;;5878696;28;20156;-71
2023/08/14 05:00:26;;;;;;;2.42;1.77;;;;;;;;;;5874613;28;20046;-71
2023/08/14 05:03:17;;;;;;;4.13;1.65;;;;;;;;;;5899901;28;20225;-72
2023/08/14 05:06:14;;;;;;;5.85;2.15;;;;;;;;;;5886593;28;20051;-73
2023/08/14 05:09:05;;;;;;;3.63;1.90;;;;;;;;;;5887598;28;20059;-72
2023/08/14 05:12:17;;;;;;;2.95;2.30;;;;;;;;;;5886702;28;20156;-72
2023/08/14 05:15:09;;;;;;;2.40;1.75;;;;;;;;;;5891215;28;20519;-72
2023/08/14 05:18:06;;;;;;;3.00;1.88;;;;;;;;;;5887119;28;20045;-72
2023/08/14 05:20:57;;;;;;;2.88;1.60;;;;;;;;;;5887814;28;20048;-72
2023/08/14 05:23:54;;;;;;;26.83;1.67;;;;;;;;;;5907247;28;20078;-72
2023/08/14 05:26:45;;;;;;;2.20;1.52;;;;;;;;;;5895652;28;20045;-72
2023/08/14 05:29:45;;;;;;;2.72;2.53;;;;;;;;;;5910617;28;20041;-72
2023/08/14 05:32:37;;;;;;;1.48;1.35;;;;;;;;;;5887422;28;20053;-72
2023/08/14 05:35:34;;;;;;;4.03;1.02;;;;;;;;;;5885799;28;20041;-72
2023/08/14 05:38:25;;;;;;;2.85;2.15;;;;;;;;;;5867847;28;20059;-72
2023/08/14 05:41:22;;;;;;;3.08;1.73;;;;;;;;;;5886432;28;20053;-73
2023/08/14 05:44:19;;;;;;;2.05;1.60;;;;;;;;;;5886568;28;20490;-72
2023/08/14 05:47:10;;;;;;;2.08;1.45;;;;;;;;;;5886138;28;20049;-72
2023/08/14 05:50:07;;;;;;;1.48;1.25;;;;;;;;;;5890559;28;20037;-72
2023/08/14 05:53:00;;;;;;;2.33;1.70;;;;;;;;;;5887171;28;20052;-72
2023/08/14 05:55:57;;;;;;;1.10;1.00;;;;;;;;;;5886751;28;20045;-73
2023/08/14 05:58:48;;;;;;;1.25;1.05;;;;;;;;;;5886006;28;20057;-72
2023/08/14 06:01:45;;;;;;;33.95;1.50;;;;;;;;;;5886292;28;20151;-73
2023/08/14 06:04:37;;;;;;;2.45;1.70;;;;;;;;;;5886259;28;20053;-72
2023/08/14 06:07:35;;;;;;;28.05;2.22;;;;;;;;;;5885787;28;20045;-73
2023/08/14 06:10:27;;;;;;;1.63;1.42;;;;;;;;;;5886175;28;20119;-73
2023/08/14 06:13:25;;;;;;;2.22;1.45;;;;;;;;;;5890621;28;20041;-73
2023/08/14 06:16:16;;;;;;;3.78;1.20;;;;;;;;;;5872807;28;20052;-73
2023/08/14 06:19:13;;;;;;;3.45;0.90;;;;;;;;;;5910649;28;20075;-72
2023/08/14 06:22:05;;;;;;;0.75;0.52;;;;;;;;;;5895618;28;20534;-74
2023/08/14 06:25:02;;;;;;;1.38;1.27;;;;;;;;;;5874291;28;20045;-72
2023/08/14 06:27:53;;;;;;;10.23;1.23;;;;;;;;;;5872495;28;20495;-72
2023/08/14 06:30:50;;;;;;;2.63;1.02;;;;;;;;;;5873290;28;20053;-74
2023/08/14 06:33:41;;;;;;;2.10;1.15;;;;;;;;;;5890363;28;20067;-73
2023/08/14 06:36:38;;;;;;;;;;;;;;;;;;5890410;28;20128;-73
2023/08/14 06:39:30;;;;;;;3.00;1.05;;;;;;;;;;5894774;28;20367;-73
2023/08/14 06:42:27;;;;;;;1.75;1.08;;;;;;;;;;5906546;28;20391;-73
2023/08/14 06:45:18;;;;;;;1.73;0.75;;;;;;;;;;5889449;28;20037;-73
2023/08/14 06:48:15;;;;;;;1.42;1.25;;;;;;;;;;5889869;28;20061;-74
2023/08/14 06:51:06;;;;;;;1.23;1.13;;;;;;;;;;5900688;28;20453;-73
2023/08/14 06:54:04;;;;;;;1.13;1.00;;;;;;;;;;5887098;28;20593;-74
2023/08/14 06:56:55;;;;;;;0.50;0.50;;;;;;;;;;5900882;28;20075;-74
2023/08/14 06:59:53;;;;;;;1.13;0.88;;;;;;;;;;5884479;28;20081;-74
2023/08/14 07:02:50;;;;;;;0.75;0.60;;;;;;;;;;5862096;28;20527;-75
2023/08/14 07:05:48;;;;;;;0.88;0.82;;;;;;;;;;5867841;28;20053;-73
2023/08/14 07:08:45;;;;;;;1.42;0.60;;;;;;;;;;5907152;28;20183;-73
2023/08/14 07:11:38;;;;;;;2.00;0.93;;;;;;;;;;5885292;28;20511;-73
2023/08/14 07:14:35;;;;;;;1.10;1.00;;;;;;;;;;5884817;28;20049;-74
2023/08/14 07:17:26;;;;;;;2.35;0.75;;;;;;;;;;5884739;28;20400;-74
2023/08/14 07:20:26;;;;;;;0.57;0.55;;;;;;;;;;5904076;28;20134;-74
2023/08/14 07:23:18;;;;;;;2.38;0.57;;;;;;;;;;5883851;28;20056;-74
2023/08/14 07:26:16;;;;;;;0.70;0.70;;;;;;;;;;5884262;28;20041;-74
2023/08/14 07:29:07;;;;;;;1.10;0.70;;;;;;;;;;5884639;28;20457;-73
2023/08/14 07:32:09;;;;;;;2.15;1.45;;;;;;;;;;5889275;28;20049;-73
2023/08/14 07:35:00;;;;;;;3.00;0.50;;;;;;;;;;5884662;28;20037;-73
2023/08/14 07:37:58;;;;;;;1.25;0.93;;;;;;;;;;5884050;28;20053;-73
2023/08/14 07:40:48;;;;;;;1.52;0.98;;;;;;;;;;5884262;28;20041;-74
2023/08/14 07:43:46;;;;;;;;;;;;;;;;;;5884921;28;20052;-73
2023/08/14 07:46:37;;;;;;;1.13;0.70;;;;;;;;;;5866183;28;19943;-73
2023/08/14 07:49:34;;;;;;;1.33;0.93;;;;;;;;;;5904588;28;20130;-74
2023/08/14 07:52:27;;;;;;;0.40;0.40;;;;;;;;;;5886751;28;20047;-73
2023/08/14 07:55:24;;;;;;;0.70;0.63;;;;;;;;;;5884236;28;20041;-73
2023/08/14 07:58:17;;;;;;;1.60;0.73;;;;;;;;;;5883874;28;20197;-73
2023/08/14 08:01:14;;;;;;;5.45;1.08;;;;;;;;;;5896063;28;20041;-73
2023/08/14 08:04:05;;;;;;;3.35;1.08;;;;;;;;;;5899457;28;20424;-73
2023/08/14 08:07:16;;;;;;;2.08;1.17;;;;;;;;;;5883499;28;20065;-74
2023/08/14 08:10:08;;;;;;;0.65;0.60;;;;;;;;;;5883629;28;20064;-73
2023/08/14 08:13:05;;;;;;;4.13;1.13;;;;;;;;;;5883969;28;20419;-73
2023/08/14 08:15:56;;;;;;;1.23;0.85;;;;;;;;;;5883739;28;20044;-73
2023/08/14 08:18:53;;;;;;;1.83;0.77;;;;;;;;;;5883551;28;20055;-74
2023/08/14 08:21:44;;;;;;;1.65;0.85;;;;;;;;;;5906950;28;20048;-74
2023/08/14 08:24:41;;;;;;;3.08;1.13;;;;;;;;;;5883243;28;20447;-73
2023/08/14 08:27:35;;;;;;;2.42;0.98;;;;;;;;;;5882825;28;20049;-73
2023/08/14 08:30:32;;;;;;;0.95;0.88;;;;;;;;;;5881285;28;20044;-74
2023/08/14 08:33:23;;;;;;;0.75;0.63;;;;;;;;;;5883413;28;20055;-74
2023/08/14 08:36:21;;;;;;;0.40;0.40;;;;;;;;;;5898485;28;20056;-74
2023/08/14 08:39:12;;;;;;;1.42;1.20;;;;;;;;;;5909041;28;20438;-74
2023/08/14 08:42:09;;;;;;;0.82;0.80;;;;;;;;;;5884462;28;20447;-74
2023/08/14 08:45:04;;;;;;;2.85;1.45;;;;;;;;;;5884041;28;20139;-74
2023/08/14 08:48:05;;;;;;;2.17;1.58;;;;;;;;;;5867459;28;20136;-74
2023/08/14 08:50:57;;;;;;;1.27;0.70;;;;;;;;;;5913605;28;20052;-74
2023/08/14 08:53:54;;;;;;;9.50;0.88;;;;;;;;;;5898604;28;20060;-73
2023/08/14 08:56:45;;;;;;;0.75;0.63;;;;;;;;;;5899152;28;20045;-74
2023/08/14 08:59:43;;;;;;;3.45;1.25;;;;;;;;;;5883918;28;20052;-74
2023/08/14 09:02:34;;;;;;;0.85;0.80;;;;;;;;;;5867817;28;20131;-74
2023/08/14 09:05:32;;;;;;;0.88;0.63;;;;;;;;;;5884190;28;20480;-73
2023/08/14 09:08:23;;;;;;;0.80;0.73;;;;;;;;;;5882599;28;20071;-74
2023/08/14 09:11:20;;;;;;;0.52;0.52;;;;;;;;;;5883609;28;20059;-74
2023/08/14 09:14:12;;;;;;;0.55;0.50;;;;;;;;;;5899252;28;20077;-74
2023/08/14 09:17:12;;;;;;;1.83;1.00;;;;;;;;;;5897741;28;20136;-74
2023/08/14 09:20:08;;;;;;;0.65;0.55;;;;;;;;;;5886705;28;20127;-74
2023/08/14 09:23:19;;;;;;;1.17;0.50;;;;;;;;;;5883788;28;20049;-73
2023/08/14 09:26:11;;;;;;;1.30;0.50;;;;;;;;;;5883784;28;20100;-74
2023/08/14 09:29:09;;;;;;;1.55;0.75;;;;;;;;;;5898193;28;20065;-74
2023/08/14 09:32:03;;;;;;;2.88;0.63;;;;;;;;;;5883361;28;20080;-73
2023/08/14 09:35:02;;;;;;;0.10;0.10;;;;;;;;;;5883731;28;20098;-75
2023/08/14 09:37:52;;;;;;;0.55;0.40;;;;;;;;;;5886822;28;20070;-73
2023/08/14 09:41:01;;;;;;;2.38;0.50;;;;;;;;;;5913492;28;20048;-75
2023/08/14 09:43:52;;;;;;;0.60;0.55;;;;;;;;;;5904247;28;20044;-74
2023/08/14 09:46:51;;;;;;;1.30;0.88;;;;;;;;;;5907722;28;20045;-74
2023/08/14 09:49:44;;;;;;;0.55;0.40;;;;;;;;;;5903490;28;20048;-73
2023/08/14 09:52:43;;;;;;;0.65;0.50;;;;;;;;;;5888434;28;20120;-73
2023/08/14 09:55:41;;;;;;;0.88;0.57;;;;;;;;;;5890539;28;20566;-75
2023/08/14 09:58:32;;;;;;;1.77;0.30;;;;;;;;;;5902975;28;20110;-73
2023/08/14 10:01:30;;;;;;;0.80;0.40;;;;;;;;;;5887805;28;20102;-74
2023/08/14 10:04:23;;;;;;;1.20;1.00;;;;;;;;;;5901959;28;20468;-73
2023/08/14 10:07:24;;;;;;;0.47;0.38;;;;;;;;;;5903286;28;20044;-74
2023/08/14 10:10:17;;;;;;;0.88;0.57;;;;;;;;;;5885900;28;20048;-73
2023/08/14 10:13:15;;;;;;;2.20;0.50;;;;;;;;;;5900922;28;20049;-72
2023/08/14 10:16:21;;;;;;;1.98;0.73;;;;;;;;;;5903356;28;20103;-74
2023/08/14 10:19:19;;;;;;;2.53;0.50;;;;;;;;;;5903034;28;20064;-73
2023/08/14 10:22:19;;;;;;;1.77;0.50;;;;;;;;;;5870941;28;20047;-73
2023/08/14 10:25:12;;;;;;;0.40;0.40;;;;;;;;;;5902421;28;20053;-73
2023/08/14 10:28:09;;;;;;;0.80;0.52;;;;;;;;;;5901779;28;20468;-73
2023/08/14 10:31:01;;;;;;;0.30;0.30;;;;;;;;;;5887271;28;20398;-74
2023/08/14 10:33:59;;;;;;;4.68;0.80;;;;;;;;;;5902061;28;20063;-72
2023/08/14 10:36:51;;;;;;;1.17;0.55;;;;;;;;;;5903338;28;20158;-74
2023/08/14 10:39:48;;;;;;;2.35;1.00;;;;;;;;;;5887001;28;20064;-73
2023/08/14 10:42:47;;;;;;;0.47;0.47;;;;;;;;;;5886920;28;20403;-74
2023/08/14 10:45:51;;;;;;;0.93;0.75;;;;;;;;;;5886849;28;20041;-74
2023/08/14 10:48:49;;;;;;;0.80;0.50;;;;;;;;;;5900387;28;20098;-74
2023/08/14 10:51:42;;;;;;;3.15;0.95;;;;;;;;;;5876355;28;20265;-74
2023/08/14 10:54:39;;;;;;;0.77;0.50;;;;;;;;;;5908180;28;20426;-74
2023/08/14 10:57:30;;;;;;;2.17;0.70;;;;;;;;;;5887228;28;20068;-74
2023/08/14 11:00:27;;;;;;;1.08;0.52;;;;;;;;;;5886248;28;20045;-73
2023/08/14 11:03:18;;;;;;;0.65;0.60;;;;;;;;;;5901756;28;20083;-73
2023/08/14 11:06:27;;;;;;;2.10;0.90;;;;;;;;;;5886046;28;20048;-74
2023/08/14 11:09:20;;;;;;;0.35;0.35;;;;;;;;;;5908109;28;20048;-73
2023/08/14 11:12:17;;;;;;;1.95;0.57;;;;;;;;;;5888787;28;20132;-73
2023/08/14 11:15:08;;;;;;;0.95;0.65;;;;;;;;;;5884859;28;20124;-73
2023/08/14 11:18:09;;;;;;;0.40;0.40;;;;;;;;;;5885440;28;20417;-73
2023/08/14 11:21:00;;;;;;;2.50;0.65;;;;;;;;;;5900053;28;20806;-73
2023/08/14 11:24:17;;;;;;;1.92;0.90;;;;;;;;;;5897498;28;20053;-72
2023/08/14 11:27:08;;;;;;;3.33;0.90;;;;;;;;;;5900708;28;20045;-73
2023/08/14 11:30:05;;;;;;;;;;;;;;;;;;5885805;28;20071;-74
2023/08/14 11:33:08;;;;;;;0.55;0.52;;;;;;;;;;5884988;28;19970;-74
2023/08/14 11:35:58;;;;;;;1.67;0.47;;;;;;;;;;5892236;28;20059;-72
2023/08/14 11:39:03;;;;;;;0.40;0.30;;;;;;;;;;5907511;28;20103;-73
2023/08/14 11:41:54;;;;;;;0.40;0.40;;;;;;;;;;5890940;28;20037;-73
2023/08/14 11:44:51;;;;;;;0.63;0.45;;;;;;;;;;5897253;28;20179;-73
2023/08/14 11:47:49;;;;;;;0.85;0.70;;;;;;;;;;5884405;28;20051;-73
2023/08/14 11:50:47;;;;;;;0.43;0.30;;;;;;;;;;5869152;28;20041;-74
2023/08/14 11:53:38;;;;;;;0.40;0.40;;;;;;;;;;5885056;28;20498;-74
2023/08/14 11:56:37;;;;;;;0.35;0.22;;;;;;;;;;5868862;28;20688;-75
2023/08/14 11:59:28;;;;;;;3.53;0.77;;;;;;;;;;5868166;28;20049;-73
2023/08/14 12:02:28;;;;;;;0.98;0.60;;;;;;;;;;5886124;28;20114;-75
2023/08/14 12:05:26;;;;;;;1.13;0.35;;;;;;;;;;5868795;28;20167;-74
2023/08/14 12:08:17;;;;;;;0.32;0.32;;;;;;;;;;5885199;28;20403;-75
2023/08/14 12:11:17;;;;;;;;;;;;;;;;;;5885951;28;20045;-74
2023/08/14 12:14:08;;;;;;;0.77;0.45;;;;;;;;;;5900792;28;20543;-74
2023/08/14 12:17:10;;;;;;;1.48;0.88;;;;;;;;;;5885799;28;20060;-74
2023/08/14 12:20:10;;;;;;;0.68;0.45;;;;;;;;;;5885151;28;20142;-73
2023/08/14 12:23:14;;;;;;;1.10;0.47;;;;;;;;;;5885363;28;20083;-75
2023/08/14 12:26:07;;;;;;;0.90;0.63;;;;;;;;;;5885260;28;20059;-73
2023/08/14 12:29:04;;;;;;;1.05;0.43;;;;;;;;;;5885475;28;20049;-74
2023/08/14 12:31:59;;;;;;;1.92;0.38;;;;;;;;;;5899955;28;20365;-73
2023/08/14 12:34:56;;;;;;;0.32;0.30;;;;;;;;;;5884820;28;20081;-73
2023/08/14 12:37:47;;;;;;;0.80;0.50;;;;;;;;;;5885452;28;20049;-74
2023/08/14 12:40:44;;;;;;;;;;;;;;;;;;5885302;28;20120;-73
2023/08/14 12:43:35;;;;;;;1.17;0.65;;;;;;;;;;5885108;28;19936;-73
2023/08/14 12:46:32;;;;;;;0.45;0.25;;;;;;;;;;5884161;28;20049;-74
2023/08/14 12:49:24;;;;;;;1.70;0.68;;;;;;;;;;5885026;28;20053;-73
2023/08/14 12:52:27;;;;;;;2.22;0.30;;;;;;;;;;5884661;28;20045;-76
2023/08/14 12:55:20;;;;;;;0.40;0.40;;;;;;;;;;5884584;28;20048;-74
2023/08/14 12:58:17;;;;;;;0.65;0.43;;;;;;;;;;5884324;28;20044;-74
2023/08/14 13:01:08;;;;;;;1.23;0.40;;;;;;;;;;5884570;28;20114;-74
2023/08/14 13:04:05;;;;;;;1.63;0.60;;;;;;;;;;5884935;28;20080;-74
2023/08/14 13:06:58;;;;;;;2.05;0.98;;;;;;;;;;5884286;28;20064;-73
2023/08/14 13:09:56;;;;;;;3.63;1.95;;;;;;;;;;5899308;28;20041;-73
2023/08/14 13:12:46;;;;;;;5.13;1.67;;;;;;;;;;5884535;28;20192;-73
2023/08/14 13:15:44;;;;;;;0.50;0.40;;;;;;;;;;5884017;28;20068;-73
2023/08/14 13:18:34;;;;;;;0.95;0.50;;;;;;;;;;5899892;28;20041;-73
2023/08/14 13:21:32;;;;;;;1.25;0.60;;;;;;;;;;5883745;28;20053;-74
2023/08/14 13:24:29;;;;;;;0.63;0.45;;;;;;;;;;5884140;28;20124;-73
2023/08/14 13:27:20;;;;;;;1.05;0.50;;;;;;;;;;5884185;28;20041;-75
2023/08/14 13:30:17;;;;;;;1.77;0.98;;;;;;;;;;5884039;28;20047;-74
2023/08/14 13:33:11;;;;;;;0.40;0.40;;;;;;;;;;5884048;28;20056;-76
2023/08/14 13:36:09;;;;;;;1.23;0.60;;;;;;;;;;5867353;28;20051;-73
2023/08/14 13:39:00;;;;;;;23.80;1.08;;;;;;;;;;5883782;28;20037;-73
2023/08/14 13:41:57;;;;;;;;;;;;;;;;;;5884640;28;20483;-73
2023/08/14 13:44:47;;;;;;;2.58;0.75;;;;;;;;;;5884323;28;19921;-74
2023/08/14 13:47:58;;;;;;;0.85;0.65;;;;;;;;;;5896505;28;20053;-74
2023/08/14 13:50:49;;;;;;;2.17;0.57;;;;;;;;;;5899801;28;20118;-73
2023/08/14 13:53:46;;;;;;;0.80;0.55;;;;;;;;;;5883878;28;20045;-74
2023/08/14 13:56:38;;;;;;;3.42;0.47;;;;;;;;;;5884379;28;20051;-74
2023/08/14 13:59:35;;;;;;;0.90;0.40;;;;;;;;;;5883616;28;20092;-74
2023/08/14 14:02:26;;;;;;;0.68;0.57;;;;;;;;;;5884157;28;20058;-73
2023/08/14 14:05:23;;;;;;;;;;;;;;;;;;5884229;28;20135;-74
2023/08/14 14:08:13;;;;;;;1.63;0.77;;;;;;;;;;5883540;28;20358;-73
2023/08/14 14:11:11;;;;;;;1.45;0.50;;;;;;;;;;5883632;28;20052;-74
2023/08/14 14:14:02;;;;;;;0.63;0.63;;;;;;;;;;5882890;28;20170;-73
2023/08/14 14:17:02;;;;;;;0.57;0.47;;;;;;;;;;5882639;28;20052;-73
2023/08/14 14:19:54;;;;;;;6.45;1.13;;;;;;;;;;5882328;28;20045;-74
2023/08/14 14:22:51;;;;;;;0.73;0.40;;;;;;;;;;5896608;28;20072;-74
2023/08/14 14:25:43;;;;;;;1.15;0.60;;;;;;;;;;5881723;28;20128;-73
2023/08/14 14:28:40;;;;;;;1.27;0.77;;;;;;;;;;5896535;28;20561;-75
2023/08/14 14:31:37;;;;;;;1.00;0.82;;;;;;;;;;5882638;28;20056;-73
2023/08/14 14:34:28;;;;;;;0.75;0.52;;;;;;;;;;5886355;28;20631;-73
2023/08/14 14:37:25;;;;;;;2.70;1.35;;;;;;;;;;5886420;28;20227;-73
2023/08/14 14:40:16;;;;;;;0.70;0.57;;;;;;;;;;5900993;28;20049;-74
2023/08/14 14:43:16;;;;;;;2.55;0.77;;;;;;;;;;5885504;28;20056;-73
2023/08/14 14:46:07;;;;;;;0.40;0.40;;;;;;;;;;5886263;28;20551;-75
2023/08/14 14:49:04;;;;;;;1.05;0.73;;;;;;;;;;5885610;28;20056;-72
2023/08/14 14:51:55;;;;;;;2.92;0.40;;;;;;;;;;5886342;28;20384;-73
2023/08/14 14:54:52;;;;;;;;;;;;;;;;;;5885982;28;20132;-73
2023/08/14 14:57:42;;;;;;;0.90;0.50;;;;;;;;;;5885957;28;20366;-74
2023/08/14 15:00:40;;;;;;;0.90;0.32;;;;;;;;;;5885642;28;20269;-74
2023/08/14 15:03:37;;;;;;;1.23;0.65;;;;;;;;;;5885649;28;20472;-73
2023/08/14 15:06:28;;;;;;;2.05;0.93;;;;;;;;;;5885950;28;20120;-73
2023/08/14 15:09:25;;;;;;;1.00;0.65;;;;;;;;;;5889892;28;20089;-73
2023/08/14 15:12:16;;;;;;;0.47;0.47;;;;;;;;;;5889588;28;20049;-73
2023/08/14 15:15:13;;;;;;;0.88;0.60;;;;;;;;;;5904135;28;20037;-74
2023/08/14 15:18:05;;;;;;;0.77;0.65;;;;;;;;;;5889074;28;20057;-73
2023/08/14 15:21:02;;;;;;;0.80;0.77;;;;;;;;;;5889863;28;20531;-74
2023/08/14 15:23:53;;;;;;;9.95;1.30;;;;;;;;;;5890041;28;20052;-73
2023/08/14 15:26:50;;;;;;;1.08;0.60;;;;;;;;;;5903873;28;20131;-73
2023/08/14 15:29:41;;;;;;;1.08;0.95;;;;;;;;;;5889590;28;20056;-73
2023/08/14 15:32:39;;;;;;;1.92;0.88;;;;;;;;;;5889519;28;20045;-72
2023/08/14 15:35:30;;;;;;;0.73;0.70;;;;;;;;;;5889080;28;20045;-74
2023/08/14 15:38:27;;;;;;;1.20;0.95;;;;;;;;;;5889134;28;20061;-72
2023/08/14 15:41:18;;;;;;;1.13;1.00;;;;;;;;;;5887693;28;20073;-73
2023/08/14 15:44:15;;;;;;;1.75;0.80;;;;;;;;;;5888288;28;20072;-73
2023/08/14 15:47:12;;;;;;;1.15;0.82;;;;;;;;;;5903180;28;20052;-73
2023/08/14 15:50:04;;;;;;;0.63;0.57;;;;;;;;;;5888947;28;20040;-73
2023/08/14 15:53:02;;;;;;;1.75;1.35;;;;;;;;;;5889042;28;20053;-75
2023/08/14 15:55:53;;;;;;;0.70;0.70;;;;;;;;;;5889248;28;20045;-73
2023/08/14 15:59:11;;;;;;;1.30;0.70;;;;;;;;;;5889266;28;20354;-73
2023/08/14 16:02:09;;;;;;;4.93;0.82;;;;;;;;;;5907937;28;20098;-73
2023/08/14 16:05:06;;;;;;;0.82;0.60;;;;;;;;;;5886997;28;20121;-74
2023/08/14 16:07:57;;;;;;;4.32;0.98;;;;;;;;;;5888435;28;20175;-73
2023/08/14 16:10:55;;;;;;;1.63;0.88;;;;;;;;;;5888425;28;20047;-73
2023/08/14 16:13:45;;;;;;;3.03;1.23;;;;;;;;;;5911286;28;20044;-73
2023/08/14 16:16:43;;;;;;;1.83;0.55;;;;;;;;;;5890353;28;20042;-74
2023/08/14 16:19:34;;;;;;;0.80;0.77;;;;;;;;;;5887624;28;20366;-73
2023/08/14 16:22:31;;;;;;;1.13;0.50;;;;;;;;;;5870291;28;20407;-73
2023/08/14 16:25:21;;;;;;;3.17;0.80;;;;;;;;;;5886878;28;20045;-73
2023/08/14 16:28:19;;;;;;;0.50;0.40;;;;;;;;;;5886944;28;20041;-74
2023/08/14 16:31:09;;;;;;;1.52;0.73;;;;;;;;;;5886747;28;20056;-73
2023/08/14 16:34:07;;;;;;;1.15;0.60;;;;;;;;;;5910133;28;20048;-72
2023/08/14 16:36:58;;;;;;;0.60;0.57;;;;;;;;;;5887829;28;20557;-72
2023/08/14 16:39:55;;;;;;;0.90;0.80;;;;;;;;;;5887295;28;20126;-74
2023/08/14 16:42:46;;;;;;;1.90;0.70;;;;;;;;;;5886655;28;20049;-74
2023/08/14 16:45:48;;;;;;;0.75;0.75;;;;;;;;;;5880217;28;20416;-73
2023/08/14 16:48:38;;;;;;;0.40;0.40;;;;;;;;;;5885492;28;20053;-74
2023/08/14 16:51:36;;;;;;;1.20;0.73;;;;;;;;;;5884024;28;20056;-73
2023/08/14 16:54:26;;;;;;;5.80;1.48;;;;;;;;;;5887116;28;20124;-73
2023/08/14 16:57:24;;;;;;;1.27;1.00;;;;;;;;;;5886588;28;20068;-73
2023/08/14 17:00:17;;;;;;;2.75;0.70;;;;;;;;;;5870827;28;20049;-74
2023/08/14 17:03:15;;;;;;;2.33;1.10;;;;;;;;;;5889567;28;20122;-73
2023/08/14 17:06:06;;;;;;;1.40;0.80;;;;;;;;;;5893238;28;20136;-74
2023/08/14 17:09:05;;;;;;;1.67;0.80;;;;;;;;;;5884703;28;20045;-73
2023/08/14 17:11:56;;;;;;;0.57;0.57;;;;;;;;;;5894097;28;20415;-73
2023/08/14 17:14:54;;;;;;;;;;;;;;;;;;5906338;28;20572;-73
2023/08/14 17:17:45;;;;;;;1.05;0.80;;;;;;;;;;5884330;28;19928;-73
2023/08/14 17:20:46;;;;;;;0.63;0.63;;;;;;;;;;5846299;28;20085;-73
2023/08/14 17:23:37;;;;;;;2.42;1.13;;;;;;;;;;5843672;28;20052;-74
2023/08/14 17:26:35;;;;;;;;;;;;;;;;;;5864466;28;20049;-73
2023/08/14 17:29:25;;;;;;;8.75;1.15;;;;;;;;;;5865024;28;19962;-73
2023/08/14 17:32:23;;;;;;;7.35;1.80;;;;;;;;;;5839672;28;20493;-73
2023/08/14 17:35:14;;;;;;;1.95;1.15;;;;;;;;;;5865560;28;20396;-73